sensor_id;sensor_type;location;lat;lon;timestamp;temperature;humidity
21019;DHT22;10667;51.056;3.732;2023-07-30T00:01:32;18.40;99.90
21019;DHT22;10667;51.056;3.732;2023-07-30T00:03:58;18.40;99.90
21019;DHT22;10667;51.056;3.732;2023-07-30T00:06:24;18.30;99.90
21019;DHT22;10667;51.056;3.732;2023-07-30T00:08:50;18.30;99.90
21019;DHT22;10667;51.056;3.732;2023-07-30T00:11:16;18.10;99.90
21019;DHT22;10667;51.056;3.732;2023-07-30T00:13:41;18.20;99.90
21019;DHT22;10667;51.056;3.732;2023-07-30T00:16:07;18.20;99.90
21019;DHT22;10667;51.056;3.732;2023-07-30T00:18:33;18.30;99.90
21019;DHT22;10667;51.056;3.732;2023-07-30T00:20:58;18.20;99.90
21019;DHT22;10667;51.056;3.732;2023-07-30T00:23:24;18.20;99.90
21019;DHT22;10667;51.056;3.732;2023-07-30T00:25:49;18.30;99.90
21019;DHT22;10667;51.056;3.732;2023-07-30T00:28:15;18.30;99.90
21019;DHT22;10667;51.056;3.732;2023-07-30T00:30:41;18.10;99.90
21019;DHT22;10667;51.056;3.732;2023-07-30T00:33:06;18.20;99.90
21019;DHT22;10667;51.056;3.732;2023-07-30T00:35:32;18.10;99.90
21019;DHT22;10667;51.056;3.732;2023-07-30T00:37:58;18.20;99.90
21019;DHT22;10667;51.056;3.732;2023-07-30T00:40:24;18.20;99.90
21019;DHT22;10667;51.056;3.732;2023-07-30T00:42:49;18.10;99.90
21019;DHT22;10667;51.056;3.732;2023-07-30T00:45:15;18.00;99.90
21019;DHT22;10667;51.056;3.732;2023-07-30T00:47:41;17.90;99.90
21019;DHT22;10667;51.056;3.732;2023-07-30T00:50:08;18.00;99.90
21019;DHT22;10667;51.056;3.732;2023-07-30T00:52:34;18.00;99.90
21019;DHT22;10667;51.056;3.732;2023-07-30T00:55:02;18.00;99.90
21019;DHT22;10667;51.056;3.732;2023-07-30T00:57:28;18.00;99.90
21019;DHT22;10667;51.056;3.732;2023-07-30T00:59:55;18.00;99.90
21019;DHT22;10667;51.056;3.732;2023-07-30T01:02:21;17.90;99.90
21019;DHT22;10667;51.056;3.732;2023-07-30T01:04:47;17.80;99.90
21019;DHT22;10667;51.056;3.732;2023-07-30T01:07:13;17.80;99.90
21019;DHT22;10667;51.056;3.732;2023-07-30T01:09:38;17.80;99.90
21019;DHT22;10667;51.056;3.732;2023-07-30T01:12:05;17.80;99.90
21019;DHT22;10667;51.056;3.732;2023-07-30T01:14:32;17.90;99.90
21019;DHT22;10667;51.056;3.732;2023-07-30T01:16:58;18.00;99.90
21019;DHT22;10667;51.056;3.732;2023-07-30T01:19:24;17.90;99.90
21019;DHT22;10667;51.056;3.732;2023-07-30T01:21:50;17.90;99.90
21019;DHT22;10667;51.056;3.732;2023-07-30T01:24:15;17.90;99.90
21019;DHT22;10667;51.056;3.732;2023-07-30T01:26:46;17.90;99.90
21019;DHT22;10667;51.056;3.732;2023-07-30T01:29:22;17.80;99.90
21019;DHT22;10667;51.056;3.732;2023-07-30T01:31:55;17.80;99.90
21019;DHT22;10667;51.056;3.732;2023-07-30T01:34:23;17.90;99.90
21019;DHT22;10667;51.056;3.732;2023-07-30T01:36:49;17.80;99.90
21019;DHT22;10667;51.056;3.732;2023-07-30T01:39:16;17.60;99.90
21019;DHT22;10667;51.056;3.732;2023-07-30T01:41:43;17.60;99.90
21019;DHT22;10667;51.056;3.732;2023-07-30T01:44:09;17.70;99.90
21019;DHT22;10667;51.056;3.732;2023-07-30T01:46:34;17.70;99.90
21019;DHT22;10667;51.056;3.732;2023-07-30T01:49:00;17.60;99.90
21019;DHT22;10667;51.056;3.732;2023-07-30T01:51:25;17.60;99.90
21019;DHT22;10667;51.056;3.732;2023-07-30T01:53:51;17.70;99.90
21019;DHT22;10667;51.056;3.732;2023-07-30T01:56:17;17.60;99.90
21019;DHT22;10667;51.056;3.732;2023-07-30T01:58:42;17.70;99.90
21019;DHT22;10667;51.056;3.732;2023-07-30T02:01:08;17.80;99.90
21019;DHT22;10667;51.056;3.732;2023-07-30T02:03:34;17.80;99.90
21019;DHT22;10667;51.056;3.732;2023-07-30T02:06:00;17.50;99.90
21019;DHT22;10667;51.056;3.732;2023-07-30T02:08:25;17.50;99.90
21019;DHT22;10667;51.056;3.732;2023-07-30T02:10:58;17.60;99.90
21019;DHT22;10667;51.056;3.732;2023-07-30T02:13:24;17.40;99.90
21019;DHT22;10667;51.056;3.732;2023-07-30T02:15:50;17.50;99.90
21019;DHT22;10667;51.056;3.732;2023-07-30T02:18:16;17.60;99.90
21019;DHT22;10667;51.056;3.732;2023-07-30T02:20:41;17.60;99.90
21019;DHT22;10667;51.056;3.732;2023-07-30T02:23:07;17.50;99.90
21019;DHT22;10667;51.056;3.732;2023-07-30T02:25:34;17.60;99.90
21019;DHT22;10667;51.056;3.732;2023-07-30T02:28:00;17.60;99.90
21019;DHT22;10667;51.056;3.732;2023-07-30T02:30:27;17.80;99.90
21019;DHT22;10667;51.056;3.732;2023-07-30T02:32:53;17.80;99.90
21019;DHT22;10667;51.056;3.732;2023-07-30T02:35:18;17.80;99.90
21019;DHT22;10667;51.056;3.732;2023-07-30T02:37:44;17.80;99.90
21019;DHT22;10667;51.056;3.732;2023-07-30T02:40:10;17.80;99.90
21019;DHT22;10667;51.056;3.732;2023-07-30T02:42:36;17.90;99.90
21019;DHT22;10667;51.056;3.732;2023-07-30T02:45:01;17.80;99.90
21019;DHT22;10667;51.056;3.732;2023-07-30T02:47:27;17.80;99.90
21019;DHT22;10667;51.056;3.732;2023-07-30T02:49:53;17.80;99.90
21019;DHT22;10667;51.056;3.732;2023-07-30T02:52:18;17.90;99.90
21019;DHT22;10667;51.056;3.732;2023-07-30T02:54:44;17.90;99.90
21019;DHT22;10667;51.056;3.732;2023-07-30T02:57:10;17.90;99.90
21019;DHT22;10667;51.056;3.732;2023-07-30T02:59:36;17.70;99.90
21019;DHT22;10667;51.056;3.732;2023-07-30T03:02:03;17.70;99.90
21019;DHT22;10667;51.056;3.732;2023-07-30T03:04:31;17.70;99.90
21019;DHT22;10667;51.056;3.732;2023-07-30T03:06:56;17.70;99.90
21019;DHT22;10667;51.056;3.732;2023-07-30T03:09:22;17.40;99.90
21019;DHT22;10667;51.056;3.732;2023-07-30T03:11:51;17.40;99.90
21019;DHT22;10667;51.056;3.732;2023-07-30T03:14:17;17.50;99.90
21019;DHT22;10667;51.056;3.732;2023-07-30T03:16:49;17.50;99.90
21019;DHT22;10667;51.056;3.732;2023-07-30T03:19:15;17.50;99.90
21019;DHT22;10667;51.056;3.732;2023-07-30T03:21:41;17.60;99.90
21019;DHT22;10667;51.056;3.732;2023-07-30T03:24:07;17.70;99.90
21019;DHT22;10667;51.056;3.732;2023-07-30T03:26:33;17.70;99.90
21019;DHT22;10667;51.056;3.732;2023-07-30T03:28:58;17.70;99.90
21019;DHT22;10667;51.056;3.732;2023-07-30T03:31:24;17.70;99.90
21019;DHT22;10667;51.056;3.732;2023-07-30T03:33:50;17.60;99.90
21019;DHT22;10667;51.056;3.732;2023-07-30T03:36:15;17.60;99.90
21019;DHT22;10667;51.056;3.732;2023-07-30T03:38:42;17.60;99.90
21019;DHT22;10667;51.056;3.732;2023-07-30T03:41:08;17.70;99.90
21019;DHT22;10667;51.056;3.732;2023-07-30T03:43:34;17.60;99.90
21019;DHT22;10667;51.056;3.732;2023-07-30T03:46:00;17.40;99.90
21019;DHT22;10667;51.056;3.732;2023-07-30T03:48:26;17.40;99.90
21019;DHT22;10667;51.056;3.732;2023-07-30T03:50:55;17.30;99.90
21019;DHT22;10667;51.056;3.732;2023-07-30T03:53:21;17.50;99.90
21019;DHT22;10667;51.056;3.732;2023-07-30T03:55:46;17.40;99.90
21019;DHT22;10667;51.056;3.732;2023-07-30T03:58:12;17.40;99.90
21019;DHT22;10667;51.056;3.732;2023-07-30T04:00:38;17.50;99.90
21019;DHT22;10667;51.056;3.732;2023-07-30T04:03:03;17.60;99.90
21019;DHT22;10667;51.056;3.732;2023-07-30T04:05:30;17.70;99.90
21019;DHT22;10667;51.056;3.732;2023-07-30T04:07:55;17.60;99.90
21019;DHT22;10667;51.056;3.732;2023-07-30T04:10:22;17.60;99.90
21019;DHT22;10667;51.056;3.732;2023-07-30T04:12:47;17.70;99.90
21019;DHT22;10667;51.056;3.732;2023-07-30T04:15:15;17.60;99.90
21019;DHT22;10667;51.056;3.732;2023-07-30T04:17:41;17.60;99.90
21019;DHT22;10667;51.056;3.732;2023-07-30T04:20:07;17.60;99.90
21019;DHT22;10667;51.056;3.732;2023-07-30T04:22:35;17.70;99.90
21019;DHT22;10667;51.056;3.732;2023-07-30T04:25:01;17.70;99.90
21019;DHT22;10667;51.056;3.732;2023-07-30T04:27:27;17.70;99.90
21019;DHT22;10667;51.056;3.732;2023-07-30T04:29:52;17.70;99.90
21019;DHT22;10667;51.056;3.732;2023-07-30T04:32:18;17.70;99.90
21019;DHT22;10667;51.056;3.732;2023-07-30T04:34:44;17.70;99.90
21019;DHT22;10667;51.056;3.732;2023-07-30T04:37:09;17.70;99.90
21019;DHT22;10667;51.056;3.732;2023-07-30T04:39:36;17.60;99.90
21019;DHT22;10667;51.056;3.732;2023-07-30T04:42:02;17.70;99.90
21019;DHT22;10667;51.056;3.732;2023-07-30T04:44:28;17.80;99.90
21019;DHT22;10667;51.056;3.732;2023-07-30T04:46:53;17.80;99.90
21019;DHT22;10667;51.056;3.732;2023-07-30T04:49:19;17.80;99.90
21019;DHT22;10667;51.056;3.732;2023-07-30T04:51:44;17.80;99.90
21019;DHT22;10667;51.056;3.732;2023-07-30T04:54:10;17.80;99.90
21019;DHT22;10667;51.056;3.732;2023-07-30T04:56:36;17.80;99.90
21019;DHT22;10667;51.056;3.732;2023-07-30T04:59:02;17.70;99.90
21019;DHT22;10667;51.056;3.732;2023-07-30T05:01:28;17.80;99.90
21019;DHT22;10667;51.056;3.732;2023-07-30T05:03:54;17.80;99.90
21019;DHT22;10667;51.056;3.732;2023-07-30T05:06:19;17.70;99.90
21019;DHT22;10667;51.056;3.732;2023-07-30T05:08:45;17.80;99.90
21019;DHT22;10667;51.056;3.732;2023-07-30T05:11:10;17.80;99.90
21019;DHT22;10667;51.056;3.732;2023-07-30T05:13:36;17.80;99.90
21019;DHT22;10667;51.056;3.732;2023-07-30T05:16:02;17.90;99.90
21019;DHT22;10667;51.056;3.732;2023-07-30T05:18:28;17.90;99.90
21019;DHT22;10667;51.056;3.732;2023-07-30T05:20:54;17.80;99.90
21019;DHT22;10667;51.056;3.732;2023-07-30T05:23:19;17.90;99.90
21019;DHT22;10667;51.056;3.732;2023-07-30T05:25:45;17.80;99.90
21019;DHT22;10667;51.056;3.732;2023-07-30T05:28:11;17.80;99.90
21019;DHT22;10667;51.056;3.732;2023-07-30T05:30:37;17.80;99.90
21019;DHT22;10667;51.056;3.732;2023-07-30T05:33:02;17.90;99.90
21019;DHT22;10667;51.056;3.732;2023-07-30T05:35:28;18.00;99.90
21019;DHT22;10667;51.056;3.732;2023-07-30T05:37:54;18.00;99.90
21019;DHT22;10667;51.056;3.732;2023-07-30T05:40:20;18.10;99.90
21019;DHT22;10667;51.056;3.732;2023-07-30T05:42:46;18.10;99.90
21019;DHT22;10667;51.056;3.732;2023-07-30T05:45:12;18.10;99.90
21019;DHT22;10667;51.056;3.732;2023-07-30T05:47:37;18.00;99.90
21019;DHT22;10667;51.056;3.732;2023-07-30T05:50:03;18.00;99.90
21019;DHT22;10667;51.056;3.732;2023-07-30T05:52:29;17.90;99.90
21019;DHT22;10667;51.056;3.732;2023-07-30T05:54:55;17.90;99.90
21019;DHT22;10667;51.056;3.732;2023-07-30T05:57:20;18.00;99.90
21019;DHT22;10667;51.056;3.732;2023-07-30T05:59:46;18.00;99.90
21019;DHT22;10667;51.056;3.732;2023-07-30T06:02:12;18.00;99.90
21019;DHT22;10667;51.056;3.732;2023-07-30T06:04:37;18.10;99.90
21019;DHT22;10667;51.056;3.732;2023-07-30T06:07:04;18.20;99.90
21019;DHT22;10667;51.056;3.732;2023-07-30T06:09:29;18.20;99.90
21019;DHT22;10667;51.056;3.732;2023-07-30T06:11:56;18.20;99.90
21019;DHT22;10667;51.056;3.732;2023-07-30T06:14:23;18.30;99.90
21019;DHT22;10667;51.056;3.732;2023-07-30T06:16:49;18.20;99.90
21019;DHT22;10667;51.056;3.732;2023-07-30T06:19:15;18.40;99.90
21019;DHT22;10667;51.056;3.732;2023-07-30T06:21:40;18.40;99.90
21019;DHT22;10667;51.056;3.732;2023-07-30T06:24:06;18.20;99.90
21019;DHT22;10667;51.056;3.732;2023-07-30T06:26:32;18.30;99.90
21019;DHT22;10667;51.056;3.732;2023-07-30T06:28:58;18.40;99.90
21019;DHT22;10667;51.056;3.732;2023-07-30T06:31:23;18.40;99.90
21019;DHT22;10667;51.056;3.732;2023-07-30T06:33:49;18.40;99.90
21019;DHT22;10667;51.056;3.732;2023-07-30T06:36:15;18.40;99.90
21019;DHT22;10667;51.056;3.732;2023-07-30T06:38:40;18.40;99.90
21019;DHT22;10667;51.056;3.732;2023-07-30T06:41:06;18.50;99.90
21019;DHT22;10667;51.056;3.732;2023-07-30T06:43:32;18.70;99.90
21019;DHT22;10667;51.056;3.732;2023-07-30T06:45:57;18.80;99.90
21019;DHT22;10667;51.056;3.732;2023-07-30T06:48:23;19.00;99.90
21019;DHT22;10667;51.056;3.732;2023-07-30T06:50:49;18.90;99.90
21019;DHT22;10667;51.056;3.732;2023-07-30T06:53:15;18.90;99.90
21019;DHT22;10667;51.056;3.732;2023-07-30T06:55:40;18.90;99.90
21019;DHT22;10667;51.056;3.732;2023-07-30T06:58:06;19.00;99.90
21019;DHT22;10667;51.056;3.732;2023-07-30T07:00:32;19.10;99.90
21019;DHT22;10667;51.056;3.732;2023-07-30T07:02:57;19.20;99.90
21019;DHT22;10667;51.056;3.732;2023-07-30T07:05:23;19.20;99.90
21019;DHT22;10667;51.056;3.732;2023-07-30T07:07:49;19.20;99.90
21019;DHT22;10667;51.056;3.732;2023-07-30T07:10:14;19.10;99.90
21019;DHT22;10667;51.056;3.732;2023-07-30T07:12:40;19.10;99.90
21019;DHT22;10667;51.056;3.732;2023-07-30T07:15:06;19.10;99.90
21019;DHT22;10667;51.056;3.732;2023-07-30T07:17:32;19.30;99.90
21019;DHT22;10667;51.056;3.732;2023-07-30T07:19:58;19.30;99.90
21019;DHT22;10667;51.056;3.732;2023-07-30T07:22:24;19.50;99.90
21019;DHT22;10667;51.056;3.732;2023-07-30T07:24:51;19.40;99.90
21019;DHT22;10667;51.056;3.732;2023-07-30T07:27:18;19.30;99.90
21019;DHT22;10667;51.056;3.732;2023-07-30T07:29:43;19.40;99.90
21019;DHT22;10667;51.056;3.732;2023-07-30T07:32:09;19.30;99.90
21019;DHT22;10667;51.056;3.732;2023-07-30T07:34:35;19.30;99.90
21019;DHT22;10667;51.056;3.732;2023-07-30T07:37:01;19.40;99.90
21019;DHT22;10667;51.056;3.732;2023-07-30T07:39:27;19.60;99.90
21019;DHT22;10667;51.056;3.732;2023-07-30T07:41:53;19.80;99.90
21019;DHT22;10667;51.056;3.732;2023-07-30T07:44:18;19.90;99.90
21019;DHT22;10667;51.056;3.732;2023-07-30T07:46:44;20.00;99.90
21019;DHT22;10667;51.056;3.732;2023-07-30T07:49:10;19.90;99.90
21019;DHT22;10667;51.056;3.732;2023-07-30T07:51:35;19.90;99.90
21019;DHT22;10667;51.056;3.732;2023-07-30T07:54:01;19.90;99.90
21019;DHT22;10667;51.056;3.732;2023-07-30T07:56:26;19.90;99.90
21019;DHT22;10667;51.056;3.732;2023-07-30T07:58:52;19.90;99.90
21019;DHT22;10667;51.056;3.732;2023-07-30T08:01:18;19.80;99.90
21019;DHT22;10667;51.056;3.732;2023-07-30T08:03:44;19.90;99.90
21019;DHT22;10667;51.056;3.732;2023-07-30T08:06:09;20.00;99.90
21019;DHT22;10667;51.056;3.732;2023-07-30T08:08:35;20.10;99.90
21019;DHT22;10667;51.056;3.732;2023-07-30T08:11:08;20.20;99.90
21019;DHT22;10667;51.056;3.732;2023-07-30T08:13:34;20.20;99.90
21019;DHT22;10667;51.056;3.732;2023-07-30T08:16:00;20.30;99.90
21019;DHT22;10667;51.056;3.732;2023-07-30T08:18:26;20.20;99.90
21019;DHT22;10667;51.056;3.732;2023-07-30T08:20:52;20.10;99.90
21019;DHT22;10667;51.056;3.732;2023-07-30T08:23:18;20.10;99.90
21019;DHT22;10667;51.056;3.732;2023-07-30T08:25:43;20.10;99.90
21019;DHT22;10667;51.056;3.732;2023-07-30T08:28:09;20.20;99.90
21019;DHT22;10667;51.056;3.732;2023-07-30T08:30:34;20.20;99.90
21019;DHT22;10667;51.056;3.732;2023-07-30T08:33:00;20.20;99.90
21019;DHT22;10667;51.056;3.732;2023-07-30T08:35:26;20.20;99.90
21019;DHT22;10667;51.056;3.732;2023-07-30T08:37:54;20.20;99.90
21019;DHT22;10667;51.056;3.732;2023-07-30T08:40:22;19.90;99.90
21019;DHT22;10667;51.056;3.732;2023-07-30T08:42:51;20.10;99.90
21019;DHT22;10667;51.056;3.732;2023-07-30T08:45:17;20.20;99.90
21019;DHT22;10667;51.056;3.732;2023-07-30T08:47:43;20.30;99.90
21019;DHT22;10667;51.056;3.732;2023-07-30T08:50:10;20.10;99.90
21019;DHT22;10667;51.056;3.732;2023-07-30T08:52:36;20.20;99.90
21019;DHT22;10667;51.056;3.732;2023-07-30T08:55:03;20.40;99.90
21019;DHT22;10667;51.056;3.732;2023-07-30T08:57:30;20.50;99.90
21019;DHT22;10667;51.056;3.732;2023-07-30T09:00:03;20.70;99.90
21019;DHT22;10667;51.056;3.732;2023-07-30T09:05:00;20.80;99.90
21019;DHT22;10667;51.056;3.732;2023-07-30T09:07:27;20.70;99.90
21019;DHT22;10667;51.056;3.732;2023-07-30T09:09:52;20.70;99.90
21019;DHT22;10667;51.056;3.732;2023-07-30T09:12:18;20.80;99.90
21019;DHT22;10667;51.056;3.732;2023-07-30T09:14:44;20.70;99.90
21019;DHT22;10667;51.056;3.732;2023-07-30T09:17:18;20.90;99.90
21019;DHT22;10667;51.056;3.732;2023-07-30T09:19:44;21.00;99.90
21019;DHT22;10667;51.056;3.732;2023-07-30T09:22:12;21.20;99.90
21019;DHT22;10667;51.056;3.732;2023-07-30T09:24:43;21.20;99.90
21019;DHT22;10667;51.056;3.732;2023-07-30T09:27:09;21.20;99.90
21019;DHT22;10667;51.056;3.732;2023-07-30T09:29:34;21.20;99.90
21019;DHT22;10667;51.056;3.732;2023-07-30T09:32:00;21.40;99.90
21019;DHT22;10667;51.056;3.732;2023-07-30T09:34:26;21.70;99.90
21019;DHT22;10667;51.056;3.732;2023-07-30T09:36:53;21.80;99.90
21019;DHT22;10667;51.056;3.732;2023-07-30T09:39:26;22.20;99.90
21019;DHT22;10667;51.056;3.732;2023-07-30T09:42:00;22.40;99.90
21019;DHT22;10667;51.056;3.732;2023-07-30T09:44:25;22.60;99.90
21019;DHT22;10667;51.056;3.732;2023-07-30T09:46:51;22.60;99.90
21019;DHT22;10667;51.056;3.732;2023-07-30T09:49:18;22.50;99.90
21019;DHT22;10667;51.056;3.732;2023-07-30T09:51:44;22.70;99.90
21019;DHT22;10667;51.056;3.732;2023-07-30T09:54:11;22.70;99.90
21019;DHT22;10667;51.056;3.732;2023-07-30T09:56:39;22.60;99.90
21019;DHT22;10667;51.056;3.732;2023-07-30T09:59:08;22.80;99.90
21019;DHT22;10667;51.056;3.732;2023-07-30T10:01:43;23.10;99.90
21019;DHT22;10667;51.056;3.732;2023-07-30T10:04:09;23.20;99.90
21019;DHT22;10667;51.056;3.732;2023-07-30T10:06:39;23.20;99.90
21019;DHT22;10667;51.056;3.732;2023-07-30T10:09:07;23.10;99.90
21019;DHT22;10667;51.056;3.732;2023-07-30T10:11:35;22.90;99.90
21019;DHT22;10667;51.056;3.732;2023-07-30T10:14:02;22.90;99.90
21019;DHT22;10667;51.056;3.732;2023-07-30T10:16:29;22.80;99.90
21019;DHT22;10667;51.056;3.732;2023-07-30T10:18:58;22.80;99.90
21019;DHT22;10667;51.056;3.732;2023-07-30T10:21:25;22.80;99.90
21019;DHT22;10667;51.056;3.732;2023-07-30T10:24:00;22.60;99.90
21019;DHT22;10667;51.056;3.732;2023-07-30T10:26:30;22.70;99.90
21019;DHT22;10667;51.056;3.732;2023-07-30T10:29:16;22.70;99.90
21019;DHT22;10667;51.056;3.732;2023-07-30T10:31:51;22.90;99.90
21019;DHT22;10667;51.056;3.732;2023-07-30T10:34:17;22.70;99.90
21019;DHT22;10667;51.056;3.732;2023-07-30T10:36:45;22.50;99.90
21019;DHT22;10667;51.056;3.732;2023-07-30T10:41:38;22.60;99.90
21019;DHT22;10667;51.056;3.732;2023-07-30T10:44:04;22.50;99.90
21019;DHT22;10667;51.056;3.732;2023-07-30T10:46:29;22.60;99.90
21019;DHT22;10667;51.056;3.732;2023-07-30T10:48:55;22.70;99.90
21019;DHT22;10667;51.056;3.732;2023-07-30T10:51:21;22.90;99.90
21019;DHT22;10667;51.056;3.732;2023-07-30T10:53:49;23.10;99.90
21019;DHT22;10667;51.056;3.732;2023-07-30T10:56:23;23.50;99.90
21019;DHT22;10667;51.056;3.732;2023-07-30T10:58:53;23.80;99.90
21019;DHT22;10667;51.056;3.732;2023-07-30T11:01:19;24.00;99.90
21019;DHT22;10667;51.056;3.732;2023-07-30T11:03:49;24.10;99.90
21019;DHT22;10667;51.056;3.732;2023-07-30T11:06:24;24.20;99.90
21019;DHT22;10667;51.056;3.732;2023-07-30T11:08:50;24.50;99.90
21019;DHT22;10667;51.056;3.732;2023-07-30T11:11:16;24.50;99.90
21019;DHT22;10667;51.056;3.732;2023-07-30T11:13:44;24.80;99.90
21019;DHT22;10667;51.056;3.732;2023-07-30T11:16:14;25.20;99.90
21019;DHT22;10667;51.056;3.732;2023-07-30T11:18:41;25.30;99.90
21019;DHT22;10667;51.056;3.732;2023-07-30T11:21:11;25.00;99.90
21019;DHT22;10667;51.056;3.732;2023-07-30T11:23:39;25.30;99.90
21019;DHT22;10667;51.056;3.732;2023-07-30T11:26:06;25.50;99.90
21019;DHT22;10667;51.056;3.732;2023-07-30T11:28:37;25.50;99.90
21019;DHT22;10667;51.056;3.732;2023-07-30T11:31:09;25.30;99.90
21019;DHT22;10667;51.056;3.732;2023-07-30T11:33:46;25.50;99.90
21019;DHT22;10667;51.056;3.732;2023-07-30T11:36:17;25.80;99.90
21019;DHT22;10667;51.056;3.732;2023-07-30T11:38:45;26.00;99.90
21019;DHT22;10667;51.056;3.732;2023-07-30T11:41:11;26.10;99.90
21019;DHT22;10667;51.056;3.732;2023-07-30T11:43:39;26.40;99.90
21019;DHT22;10667;51.056;3.732;2023-07-30T11:46:10;26.30;99.90
21019;DHT22;10667;51.056;3.732;2023-07-30T11:48:36;26.50;99.90
21019;DHT22;10667;51.056;3.732;2023-07-30T11:51:02;26.50;99.10
21019;DHT22;10667;51.056;3.732;2023-07-30T11:54:00;26.50;97.50
21019;DHT22;10667;51.056;3.732;2023-07-30T11:56:32;26.40;96.20
21019;DHT22;10667;51.056;3.732;2023-07-30T11:59:04;26.60;95.70
21019;DHT22;10667;51.056;3.732;2023-07-30T12:01:32;26.40;97.50
21019;DHT22;10667;51.056;3.732;2023-07-30T12:04:01;26.70;97.10
21019;DHT22;10667;51.056;3.732;2023-07-30T12:06:40;26.90;93.40
21019;DHT22;10667;51.056;3.732;2023-07-30T12:09:13;26.90;91.70
21019;DHT22;10667;51.056;3.732;2023-07-30T12:14:15;27.00;93.50
21019;DHT22;10667;51.056;3.732;2023-07-30T12:16:40;27.20;92.70
21019;DHT22;10667;51.056;3.732;2023-07-30T12:19:06;27.60;89.90
21019;DHT22;10667;51.056;3.732;2023-07-30T12:21:32;27.90;87.80
21019;DHT22;10667;51.056;3.732;2023-07-30T12:23:58;27.60;88.70
21019;DHT22;10667;51.056;3.732;2023-07-30T12:26:23;27.60;89.20
21019;DHT22;10667;51.056;3.732;2023-07-30T12:28:49;27.40;88.10
21019;DHT22;10667;51.056;3.732;2023-07-30T12:31:15;27.30;90.70
21019;DHT22;10667;51.056;3.732;2023-07-30T12:33:40;27.50;88.30
21019;DHT22;10667;51.056;3.732;2023-07-30T12:36:06;27.70;86.70
21019;DHT22;10667;51.056;3.732;2023-07-30T12:38:31;27.90;88.30
21019;DHT22;10667;51.056;3.732;2023-07-30T12:40:57;28.30;85.40
21019;DHT22;10667;51.056;3.732;2023-07-30T12:43:23;28.70;86.60
21019;DHT22;10667;51.056;3.732;2023-07-30T12:45:48;28.90;83.70
21019;DHT22;10667;51.056;3.732;2023-07-30T12:48:14;28.90;78.80
21019;DHT22;10667;51.056;3.732;2023-07-30T12:50:40;29.00;82.40
21019;DHT22;10667;51.056;3.732;2023-07-30T12:53:05;29.30;77.10
21019;DHT22;10667;51.056;3.732;2023-07-30T12:55:31;29.50;77.80
21019;DHT22;10667;51.056;3.732;2023-07-30T12:57:57;28.60;76.50
21019;DHT22;10667;51.056;3.732;2023-07-30T13:00:22;28.60;77.70
21019;DHT22;10667;51.056;3.732;2023-07-30T13:02:48;28.80;75.30
21019;DHT22;10667;51.056;3.732;2023-07-30T13:05:16;28.40;75.90
21019;DHT22;10667;51.056;3.732;2023-07-30T13:07:41;28.20;76.50
21019;DHT22;10667;51.056;3.732;2023-07-30T13:10:08;28.00;78.30
21019;DHT22;10667;51.056;3.732;2023-07-30T13:12:34;27.90;77.70
21019;DHT22;10667;51.056;3.732;2023-07-30T13:15:00;28.40;78.40
21019;DHT22;10667;51.056;3.732;2023-07-30T13:17:27;28.90;78.20
21019;DHT22;10667;51.056;3.732;2023-07-30T13:19:53;29.10;75.60
21019;DHT22;10667;51.056;3.732;2023-07-30T13:22:18;29.60;72.70
21019;DHT22;10667;51.056;3.732;2023-07-30T13:24:44;29.90;70.80
21019;DHT22;10667;51.056;3.732;2023-07-30T13:27:10;29.30;72.20
21019;DHT22;10667;51.056;3.732;2023-07-30T13:29:36;28.50;77.70
21019;DHT22;10667;51.056;3.732;2023-07-30T13:32:01;27.60;81.90
21019;DHT22;10667;51.056;3.732;2023-07-30T13:34:27;27.30;85.10
21019;DHT22;10667;51.056;3.732;2023-07-30T13:36:53;27.00;88.40
21019;DHT22;10667;51.056;3.732;2023-07-30T13:39:19;26.80;88.80
21019;DHT22;10667;51.056;3.732;2023-07-30T13:41:45;26.70;88.40
21019;DHT22;10667;51.056;3.732;2023-07-30T13:44:10;26.60;90.60
21019;DHT22;10667;51.056;3.732;2023-07-30T13:46:37;26.70;91.70
21019;DHT22;10667;51.056;3.732;2023-07-30T13:49:03;27.00;91.60
21019;DHT22;10667;51.056;3.732;2023-07-30T13:51:29;26.60;91.80
21019;DHT22;10667;51.056;3.732;2023-07-30T13:53:58;26.20;92.00
21019;DHT22;10667;51.056;3.732;2023-07-30T13:56:25;26.00;92.90
21019;DHT22;10667;51.056;3.732;2023-07-30T13:58:51;25.80;93.30
21019;DHT22;10667;51.056;3.732;2023-07-30T14:01:16;25.70;95.00
21019;DHT22;10667;51.056;3.732;2023-07-30T14:03:43;25.40;94.90
21019;DHT22;10667;51.056;3.732;2023-07-30T14:06:09;25.20;96.50
21019;DHT22;10667;51.056;3.732;2023-07-30T14:08:35;25.10;97.30
21019;DHT22;10667;51.056;3.732;2023-07-30T14:11:00;25.10;97.10
21019;DHT22;10667;51.056;3.732;2023-07-30T14:13:26;25.00;98.30
21019;DHT22;10667;51.056;3.732;2023-07-30T14:15:52;24.80;98.00
21019;DHT22;10667;51.056;3.732;2023-07-30T14:18:18;24.80;98.10
21019;DHT22;10667;51.056;3.732;2023-07-30T14:20:43;24.60;99.10
21019;DHT22;10667;51.056;3.732;2023-07-30T14:23:09;24.30;99.70
21019;DHT22;10667;51.056;3.732;2023-07-30T14:25:36;24.10;99.90
21019;DHT22;10667;51.056;3.732;2023-07-30T14:28:01;23.90;99.90
21019;DHT22;10667;51.056;3.732;2023-07-30T14:30:27;23.80;99.90
21019;DHT22;10667;51.056;3.732;2023-07-30T14:32:53;23.70;99.90
21019;DHT22;10667;51.056;3.732;2023-07-30T14:35:18;23.70;99.90
21019;DHT22;10667;51.056;3.732;2023-07-30T14:37:44;23.60;99.90
21019;DHT22;10667;51.056;3.732;2023-07-30T14:40:10;23.50;99.90
21019;DHT22;10667;51.056;3.732;2023-07-30T14:42:35;23.20;99.90
21019;DHT22;10667;51.056;3.732;2023-07-30T14:45:01;23.10;99.90
21019;DHT22;10667;51.056;3.732;2023-07-30T14:47:27;23.00;99.90
21019;DHT22;10667;51.056;3.732;2023-07-30T14:49:52;22.70;99.90
21019;DHT22;10667;51.056;3.732;2023-07-30T14:52:18;22.40;99.90
21019;DHT22;10667;51.056;3.732;2023-07-30T14:54:44;22.30;99.90
21019;DHT22;10667;51.056;3.732;2023-07-30T14:57:11;22.20;99.90
21019;DHT22;10667;51.056;3.732;2023-07-30T14:59:36;22.00;99.90
21019;DHT22;10667;51.056;3.732;2023-07-30T15:02:02;21.90;99.90
21019;DHT22;10667;51.056;3.732;2023-07-30T15:04:28;21.60;99.90
21019;DHT22;10667;51.056;3.732;2023-07-30T15:06:55;21.50;99.90
21019;DHT22;10667;51.056;3.732;2023-07-30T15:09:21;21.30;99.90
21019;DHT22;10667;51.056;3.732;2023-07-30T15:11:46;21.10;99.90
21019;DHT22;10667;51.056;3.732;2023-07-30T15:14:12;21.00;99.90
21019;DHT22;10667;51.056;3.732;2023-07-30T15:16:38;20.80;99.90
21019;DHT22;10667;51.056;3.732;2023-07-30T15:19:04;20.70;99.90
21019;DHT22;10667;51.056;3.732;2023-07-30T15:21:30;20.40;99.90
21019;DHT22;10667;51.056;3.732;2023-07-30T15:23:56;20.40;99.90
21019;DHT22;10667;51.056;3.732;2023-07-30T15:26:23;20.50;99.90
21019;DHT22;10667;51.056;3.732;2023-07-30T15:28:49;20.60;99.90
21019;DHT22;10667;51.056;3.732;2023-07-30T15:31:15;20.60;99.90
21019;DHT22;10667;51.056;3.732;2023-07-30T15:33:41;20.60;99.90